Time;durP1;ratioP1;P1;durP2;ratioP2;P2;SDS_P1;SDS_P2;PMS_P1;PMS_P2;Temp;Humidity;BMP_temperature;BMP_pressure;BME280_temperature;BME280_humidity;BME280_pressure;Samples;Min_cycle;Max_cycle;Signal;HPM_P1;HPM_P2
2022/10/29 00:02:33;;;;;;;40.22;21.95;;;10.40;99.90;;;;;;10405742;28;20478;-80
2022/10/29 00:07:33;;;;;;;33.03;20.02;;;10.30;99.90;;;;;;10375063;28;20716;-79
2022/10/29 00:12:35;;;;;;;37.30;21.55;;;10.20;99.90;;;;;;10395731;28;20034;-79
2022/10/29 00:17:35;;;;;;;31.38;19.90;;;10.20;99.90;;;;;;10368549;28;20115;-81
2022/10/29 00:22:36;;;;;;;32.35;20.70;;;10.20;99.90;;;;;;10394184;28;20060;-82
2022/10/29 00:27:36;;;;;;;39.92;22.55;;;10.10;99.90;;;;;;10394680;28;20033;-79
2022/10/29 00:32:37;;;;;;;34.47;23.40;;;10.00;99.90;;;;;;10398448;28;20045;-79
2022/10/29 00:37:39;;;;;;;35.40;22.45;;;9.90;99.90;;;;;;10397938;28;20112;-81
2022/10/29 00:42:40;;;;;;;40.47;23.58;;;9.90;99.90;;;;;;10388616;28;20037;-78
2022/10/29 00:47:40;;;;;;;40.28;21.95;;;10.00;99.90;;;;;;10403987;28;20037;-80
2022/10/29 00:52:46;;;;;;;39.50;23.35;;;10.10;99.90;;;;;;10382563;28;20513;-78
2022/10/29 00:57:51;;;;;;;37.53;21.85;;;10.20;99.90;;;;;;10404166;28;20338;-82
2022/10/29 01:02:52;;;;;;;39.30;23.35;;;10.10;99.90;;;;;;10402112;28;20037;-79
2022/10/29 01:07:52;;;;;;;32.63;20.20;;;10.10;99.90;;;;;;10403697;28;20061;-80
2022/10/29 01:13:03;;;;;;;36.55;21.98;;;10.00;99.90;;;;;;10404163;28;20125;-80
2022/10/29 01:18:10;;;;;;;33.42;20.40;;;9.90;99.90;;;;;;10399902;28;20032;-79
2022/10/29 01:23:56;;;;;;;35.25;19.92;;;9.90;99.90;;;;;;10403037;28;20053;-80
2022/10/29 01:29:25;;;;;;;61.40;36.63;;;9.80;99.90;;;;;;10402989;28;20057;-79
2022/10/29 01:34:41;;;;;;;58.10;35.87;;;9.80;99.90;;;;;;10411890;28;20991;-79
2022/10/29 01:39:54;;;;;;;54.88;33.22;;;9.90;99.90;;;;;;10408709;28;20029;-81
2022/10/29 01:45:16;;;;;;;54.00;32.30;;;9.90;99.90;;;;;;10403525;28;20432;-80
2022/10/29 01:50:20;;;;;;;54.97;33.55;;;10.00;99.90;;;;;;10382314;28;20038;-80
2022/10/29 01:55:28;;;;;;;46.70;26.55;;;10.00;99.90;;;;;;10410608;28;20610;-79
2022/10/29 02:00:47;;;;;;;46.78;27.80;;;10.00;99.90;;;;;;10405463;28;20029;-79
2022/10/29 02:06:28;;;;;;;35.33;20.98;;;10.00;99.90;;;;;;10405474;28;20066;-80
2022/10/29 02:12:04;;;;;;;41.80;22.80;;;10.00;99.90;;;;;;10397693;28;20033;-80
2022/10/29 02:17:05;;;;;;;36.17;19.88;;;10.10;99.90;;;;;;10409234;28;20489;-79
2022/10/29 02:22:06;;;;;;;35.50;22.98;;;10.10;99.90;;;;;;10399479;28;20187;-79
2022/10/29 02:27:07;;;;;;;34.33;18.52;;;10.20;99.90;;;;;;10396837;28;20022;-82
2022/10/29 02:32:07;;;;;;;36.10;18.90;;;10.20;99.90;;;;;;10387669;28;20113;-79
2022/10/29 02:37:08;;;;;;;30.88;17.73;;;10.20;99.90;;;;;;10387577;28;20393;-79
2022/10/29 02:42:09;;;;;;;28.17;17.08;;;10.20;99.90;;;;;;10397392;28;20048;-80
2022/10/29 02:47:09;;;;;;;32.90;20.77;;;10.10;99.90;;;;;;10390282;28;20029;-82
2022/10/29 02:52:10;;;;;;;33.85;19.60;;;10.10;99.90;;;;;;10408594;28;20038;-80
2022/10/29 02:57:11;;;;;;;31.00;17.23;;;10.10;99.90;;;;;;10408935;28;20029;-80
2022/10/29 03:02:11;;;;;;;32.60;18.95;;;10.10;99.90;;;;;;10405515;28;20040;-80
2022/10/29 03:07:12;;;;;;;34.88;19.15;;;10.10;99.90;;;;;;10401831;28;20152;-82
2022/10/29 03:12:12;;;;;;;35.13;18.35;;;10.20;99.90;;;;;;10399359;28;20530;-81
2022/10/29 03:17:13;;;;;;;32.25;18.10;;;10.20;99.90;;;;;;10401837;28;20037;-80
2022/10/29 03:22:13;;;;;;;37.40;19.33;;;10.20;99.90;;;;;;10385989;28;20045;-79
2022/10/29 03:27:14;;;;;;;35.40;19.63;;;10.10;99.90;;;;;;10397403;28;20030;-80
2022/10/29 03:32:14;;;;;;;37.17;19.77;;;10.10;99.90;;;;;;10394763;28;20044;-79
2022/10/29 03:37:15;;;;;;;39.38;20.98;;;10.20;99.90;;;;;;10380831;28;20028;-80
2022/10/29 03:42:15;;;;;;;45.50;24.00;;;10.10;99.90;;;;;;10392086;28;20038;-81
2022/10/29 03:47:16;;;;;;;61.58;32.33;;;10.20;99.90;;;;;;10397920;28;20055;-83
2022/10/29 03:52:16;;;;;;;60.55;31.80;;;10.30;99.90;;;;;;10396682;28;20052;-81
2022/10/29 03:57:17;;;;;;;60.78;30.45;;;10.40;99.90;;;;;;10398870;28;20107;-80
2022/10/29 04:02:17;;;;;;;48.50;23.35;;;10.40;99.90;;;;;;10404399;28;20041;-80
2022/10/29 04:07:18;;;;;;;36.53;21.00;;;10.50;99.90;;;;;;10403849;28;20409;-79
2022/10/29 04:12:19;;;;;;;38.72;19.20;;;10.60;99.90;;;;;;10391981;28;20420;-81
2022/10/29 04:17:19;;;;;;;33.00;19.42;;;10.70;99.90;;;;;;10403445;28;20125;-81
2022/10/29 04:22:20;;;;;;;36.80;19.77;;;10.80;99.90;;;;;;10404652;28;20544;-81
2022/10/29 04:27:20;;;;;;;37.70;20.40;;;10.80;99.90;;;;;;10403300;28;20040;-79
2022/10/29 04:32:21;;;;;;;46.65;23.40;;;10.80;99.90;;;;;;10385060;28;20048;-80
2022/10/29 04:37:21;;;;;;;44.38;22.02;;;10.90;99.90;;;;;;10403161;28;20041;-84
2022/10/29 04:42:22;;;;;;;47.55;25.65;;;11.00;99.90;;;;;;10389328;28;20040;-80
2022/10/29 04:47:22;;;;;;;57.88;30.65;;;11.00;99.90;;;;;;10382411;28;20524;-83
2022/10/29 04:52:23;;;;;;;64.95;34.45;;;11.10;99.90;;;;;;10403661;28;20440;-80
2022/10/29 04:57:24;;;;;;;69.28;35.58;;;11.10;99.90;;;;;;10389323;28;20087;-81
2022/10/29 05:02:24;;;;;;;68.05;35.53;;;11.10;99.90;;;;;;10403070;28;20041;-80
2022/10/29 05:07:25;;;;;;;74.63;38.65;;;11.20;99.90;;;;;;10407619;28;20099;-78
2022/10/29 05:12:26;;;;;;;77.20;38.15;;;11.20;99.90;;;;;;10405043;28;20151;-79
2022/10/29 05:17:26;;;;;;;61.67;30.83;;;11.20;99.90;;;;;;10405099;28;20358;-79
2022/10/29 05:22:27;;;;;;;66.07;33.88;;;11.20;99.90;;;;;;10409691;28;20045;-77
2022/10/29 05:27:28;;;;;;;93.53;54.42;;;11.20;99.90;;;;;;10401424;28;20682;-79
2022/10/29 05:32:28;;;;;;;72.13;36.65;;;11.20;99.90;;;;;;10395329;28;20040;-78
2022/10/29 05:37:29;;;;;;;79.15;39.17;;;11.20;99.90;;;;;;10400759;28;20324;-78
2022/10/29 05:42:29;;;;;;;81.78;39.95;;;11.30;99.90;;;;;;10402971;28;20038;-83
2022/10/29 05:47:30;;;;;;;84.65;41.70;;;11.30;99.90;;;;;;10400436;28;20040;-80
2022/10/29 05:52:31;;;;;;;64.00;31.80;;;11.20;99.90;;;;;;10405743;28;20037;-79
2022/10/29 05:57:32;;;;;;;107.45;52.72;;;11.20;99.90;;;;;;10381538;28;20072;-82
2022/10/29 06:02:33;;;;;;;70.82;35.67;;;11.20;99.90;;;;;;10399534;28;20212;-82
2022/10/29 06:07:33;;;;;;;62.67;31.95;;;11.20;99.90;;;;;;10405805;28;20516;-78
2022/10/29 06:12:34;;;;;;;57.25;30.00;;;11.30;99.90;;;;;;10407106;28;20091;-80
2022/10/29 06:17:40;;;;;;;57.95;31.10;;;11.30;99.90;;;;;;10403318;28;20041;-82
2022/10/29 06:22:40;;;;;;;;;;;11.30;99.90;;;;;;10394885;28;20041;-81
2022/10/29 06:27:41;;;;;;;62.65;32.55;;;11.40;99.90;;;;;;10389221;28;19913;-82
2022/10/29 06:32:46;;;;;;;47.42;24.05;;;11.50;99.90;;;;;;10391935;28;20033;-80
2022/10/29 06:37:46;;;;;;;45.40;23.70;;;11.70;99.90;;;;;;10389148;28;20131;-80
2022/10/29 06:42:47;;;;;;;39.05;20.90;;;11.80;99.90;;;;;;10398368;28;20091;-77
2022/10/29 06:47:47;;;;;;;42.72;21.90;;;11.90;99.90;;;;;;10392010;28;20112;-80
2022/10/29 06:53:08;;;;;;;40.15;20.15;;;12.00;99.90;;;;;;10409553;28;20430;-82
2022/10/29 06:58:14;;;;;;;38.47;20.10;;;12.10;99.90;;;;;;10392906;28;20381;-81
2022/10/29 07:03:17;;;;;;;38.00;19.67;;;12.20;99.90;;;;;;10393389;28;20389;-80
2022/10/29 07:08:17;;;;;;;36.72;19.40;;;12.30;99.90;;;;;;10378137;28;20050;-80
2022/10/29 07:13:18;;;;;;;32.92;19.13;;;12.30;99.90;;;;;;10395535;28;20424;-79
2022/10/29 07:18:18;;;;;;;37.03;19.33;;;12.30;99.90;;;;;;10385188;28;20075;-79
2022/10/29 07:23:19;;;;;;;36.42;18.30;;;12.30;99.90;;;;;;10389132;28;20060;-79
2022/10/29 07:28:21;;;;;;;35.97;19.17;;;12.30;99.90;;;;;;10381004;28;20040;-79
2022/10/29 07:33:22;;;;;;;30.65;17.15;;;12.40;99.90;;;;;;10386361;28;20030;-82
2022/10/29 07:38:23;;;;;;;51.67;26.10;;;12.50;99.90;;;;;;10398980;28;20041;-81
2022/10/29 07:43:23;;;;;;;36.58;18.02;;;12.60;99.90;;;;;;10401917;28;20435;-83
2022/10/29 07:48:24;;;;;;;39.67;19.50;;;12.90;99.90;;;;;;10393730;28;20117;-80
2022/10/29 07:53:24;;;;;;;24.48;13.40;;;13.20;99.90;;;;;;10391274;28;20017;-80
2022/10/29 07:58:25;;;;;;;40.60;19.20;;;13.50;99.90;;;;;;10405278;28;20037;-81
2022/10/29 08:03:26;;;;;;;21.25;12.98;;;14.00;99.90;;;;;;10385048;28;20099;-81
2022/10/29 08:08:27;;;;;;;24.75;13.18;;;14.10;99.90;;;;;;10387835;28;20120;-83
2022/10/29 08:13:27;;;;;;;19.25;12.18;;;14.30;99.90;;;;;;10398444;28;20032;-82
2022/10/29 08:18:28;;;;;;;29.05;16.13;;;14.30;99.90;;;;;;10404067;28;20489;-81
2022/10/29 08:23:28;;;;;;;28.75;16.75;;;14.40;99.90;;;;;;10398132;28;20045;-82
2022/10/29 08:28:29;;;;;;;19.58;12.50;;;14.60;99.90;;;;;;10390373;28;20037;-79
2022/10/29 08:33:29;;;;;;;20.08;12.18;;;14.80;99.90;;;;;;10383000;28;20590;-80
2022/10/29 08:38:30;;;;;;;22.30;12.70;;;15.00;99.90;;;;;;10389268;28;20029;-80
2022/10/29 08:44:09;;;;;;;20.58;12.50;;;15.10;99.90;;;;;;10397961;28;20872;-81
2022/10/29 08:49:16;;;;;;;16.35;11.05;;;15.40;99.90;;;;;;10395105;28;20752;-80
2022/10/29 08:54:17;;;;;;;21.20;12.85;;;15.70;99.90;;;;;;10385882;28;20444;-81
2022/10/29 08:59:21;;;;;;;26.80;13.93;;;16.10;99.90;;;;;;10379937;28;20025;-83
2022/10/29 09:04:28;;;;;;;23.33;12.97;;;16.30;99.90;;;;;;10398714;28;20422;-79
2022/10/29 09:09:37;;;;;;;21.38;12.18;;;16.50;99.90;;;;;;10397326;28;20049;-81
2022/10/29 09:15:16;;;;;;;20.70;10.95;;;16.60;99.90;;;;;;10401449;28;20033;-81
2022/10/29 09:20:23;;;;;;;17.65;9.90;;;16.80;99.90;;;;;;10395097;28;20041;-79
2022/10/29 09:25:28;;;;;;;29.90;14.18;;;17.00;99.90;;;;;;10383432;28;20543;-80
2022/10/29 09:30:30;;;;;;;;;;;17.00;99.90;;;;;;10386076;28;20108;-79
2022/10/29 09:35:56;;;;;;;30.02;19.00;;;16.90;99.90;;;;;;10372413;28;19913;-76
2022/10/29 09:40:59;;;;;;;33.20;16.30;;;16.90;99.90;;;;;;10380377;28;20033;-80
2022/10/29 09:46:22;;;;;;;21.38;12.55;;;17.10;99.90;;;;;;10385158;28;20037;-79
2022/10/29 09:58:13;;;;;;;24.25;11.20;;;17.00;99.90;;;;;;10385066;28;20048;-80
2022/10/29 10:09:10;;;;;;;;;;;17.10;99.90;;;;;;10408950;28;20092;-79
2022/10/29 10:14:18;;;;;;;20.73;11.13;;;16.90;99.90;;;;;;10406534;28;20023;-80
2022/10/29 10:19:25;;;;;;;20.77;13.60;;;16.70;99.90;;;;;;10396283;28;20481;-81
2022/10/29 10:24:30;;;;;;;23.55;14.93;;;16.80;99.90;;;;;;10410410;28;20397;-80
2022/10/29 10:29:31;;;;;;;18.40;10.03;;;17.00;99.90;;;;;;10408578;28;20057;-80
2022/10/29 10:34:31;;;;;;;18.27;10.35;;;17.20;99.90;;;;;;10408436;28;20116;-79
2022/10/29 10:39:38;;;;;;;19.00;10.35;;;17.50;99.90;;;;;;10386373;28;20021;-79
2022/10/29 10:44:47;;;;;;;17.50;11.07;;;17.90;99.90;;;;;;10384484;28;20072;-78
2022/10/29 10:49:48;;;;;;;22.70;12.20;;;18.40;99.90;;;;;;10396777;28;20044;-81
2022/10/29 10:55:07;;;;;;;20.95;9.40;;;18.80;99.90;;;;;;10372592;28;20030;-80
2022/10/29 11:00:19;;;;;;;17.60;10.15;;;18.70;99.90;;;;;;10403917;28;20034;-80
2022/10/29 11:05:23;;;;;;;18.33;9.02;;;18.60;99.90;;;;;;10395191;28;20060;-80
2022/10/29 11:10:55;;;;;;;15.85;7.93;;;18.60;99.90;;;;;;10389126;28;20500;-80
2022/10/29 11:16:19;;;;;;;17.30;9.60;;;18.60;99.90;;;;;;10394992;28;20087;-78
2022/10/29 11:21:27;;;;;;;13.73;8.68;;;18.60;99.90;;;;;;10386138;28;20137;-79
2022/10/29 11:26:42;;;;;;;16.30;8.35;;;18.50;99.90;;;;;;10387003;28;20830;-79
2022/10/29 11:31:57;;;;;;;13.13;7.57;;;18.50;99.90;;;;;;10391690;28;20030;-80
2022/10/29 11:37:09;;;;;;;16.90;8.88;;;18.70;99.90;;;;;;10397685;28;20665;-81
2022/10/29 11:42:10;;;;;;;14.15;8.43;;;18.90;99.90;;;;;;10383142;28;20048;-83
2022/10/29 11:47:25;;;;;;;19.60;11.95;;;19.20;99.90;;;;;;10391904;28;20595;-80
2022/10/29 11:52:54;;;;;;;17.60;8.75;;;19.20;99.90;;;;;;10402266;28;20119;-82
2022/10/29 11:58:16;;;;;;;19.50;11.05;;;19.10;99.90;;;;;;10392325;28;20034;-81
2022/10/29 12:03:46;;;;;;;16.42;9.88;;;19.10;99.90;;;;;;10391359;28;20091;-82
2022/10/29 12:08:58;;;;;;;15.77;9.60;;;19.20;99.90;;;;;;10381204;28;20049;-81
2022/10/29 12:14:28;;;;;;;15.00;8.95;;;19.10;99.90;;;;;;10384152;28;20073;-81
2022/10/29 12:19:45;;;;;;;17.77;9.13;;;18.90;99.90;;;;;;10403198;28;20558;-80
2022/10/29 12:24:52;;;;;;;16.08;9.20;;;18.90;99.90;;;;;;10384597;28;20029;-80
2022/10/29 12:30:00;;;;;;;16.58;9.95;;;18.90;99.90;;;;;;10400630;28;20025;-80
2022/10/29 12:35:27;;;;;;;15.00;9.55;;;19.10;99.90;;;;;;10391577;28;20478;-80
2022/10/29 12:40:33;;;;;;;18.48;11.10;;;19.10;99.90;;;;;;10397714;28;20052;-83
2022/10/29 12:45:42;;;;;;;16.67;8.82;;;19.20;99.90;;;;;;10386810;28;20041;-79
2022/10/29 12:50:49;;;;;;;24.48;13.13;;;19.20;99.90;;;;;;10384013;28;20037;-80
2022/10/29 12:55:51;;;;;;;20.55;8.95;;;19.30;99.90;;;;;;10391868;28;20116;-81
2022/10/29 13:00:52;;;;;;;24.75;11.45;;;19.20;99.90;;;;;;10392878;28;20026;-78
2022/10/29 13:05:52;;;;;;;21.85;11.00;;;19.20;99.90;;;;;;10399481;28;20456;-78
2022/10/29 13:10:55;;;;;;;17.10;9.60;;;19.20;99.90;;;;;;10386327;28;20034;-79
2022/10/29 13:15:56;;;;;;;17.52;10.05;;;19.20;99.90;;;;;;10393987;28;20044;-79
2022/10/29 13:20:56;;;;;;;18.65;10.93;;;19.20;99.90;;;;;;10383114;28;20139;-78
2022/10/29 13:25:59;;;;;;;20.90;12.32;;;19.10;99.90;;;;;;10395241;28;20460;-78
2022/10/29 13:31:03;;;;;;;24.98;12.88;;;19.00;99.90;;;;;;10398626;28;20030;-78
2022/10/29 13:36:14;;;;;;;22.75;12.18;;;19.00;99.90;;;;;;10382506;28;20030;-76
2022/10/29 13:41:23;;;;;;;18.35;10.85;;;19.00;99.90;;;;;;10401956;28;20041;-78
2022/10/29 13:46:46;;;;;;;19.52;11.10;;;19.00;99.90;;;;;;10394911;28;20040;-76
2022/10/29 13:51:51;;;;;;;19.20;9.43;;;18.90;99.90;;;;;;10388921;28;20039;-77
2022/10/29 13:57:13;;;;;;;17.60;10.23;;;18.90;99.90;;;;;;10399308;28;20029;-77
2022/10/29 14:02:28;;;;;;;24.10;12.18;;;18.70;99.90;;;;;;10384978;28;20034;-78
2022/10/29 14:07:50;;;;;;;17.02;10.35;;;18.50;99.90;;;;;;10388513;28;20128;-77
2022/10/29 14:12:57;;;;;;;23.63;11.80;;;18.40;99.90;;;;;;10385981;28;20821;-77
2022/10/29 14:18:16;;;;;;;17.55;10.07;;;18.10;99.90;;;;;;10394404;28;20025;-77
2022/10/29 14:23:16;;;;;;;19.10;11.73;;;17.80;99.90;;;;;;10399525;28;20044;-77
2022/10/29 14:28:17;;;;;;;22.58;11.93;;;17.60;99.90;;;;;;10397533;28;20667;-77
2022/10/29 14:33:22;;;;;;;23.02;14.15;;;17.30;99.90;;;;;;10393108;28;20045;-80
2022/10/29 14:38:28;;;;;;;;;;;17.20;99.90;;;;;;10383152;28;20112;-78
2022/10/29 14:43:29;;;;;;;27.75;13.63;;;17.00;99.90;;;;;;10388596;28;20274;-78
2022/10/29 14:48:29;;;;;;;28.92;14.38;;;16.80;99.90;;;;;;10379896;28;20045;-76
2022/10/29 14:53:34;;;;;;;20.52;12.52;;;16.70;99.90;;;;;;10384856;28;20033;-76
2022/10/29 14:58:36;;;;;;;21.90;12.85;;;16.60;99.90;;;;;;10392481;28;20017;-75
2022/10/29 15:03:36;;;;;;;42.83;23.20;;;16.40;99.90;;;;;;10390554;28;20037;-75
2022/10/29 15:08:39;;;;;;;50.63;28.00;;;16.30;99.90;;;;;;10398859;28;20045;-76
2022/10/29 15:13:39;;;;;;;28.77;16.67;;;16.10;99.90;;;;;;10397161;28;20104;-77
2022/10/29 15:18:47;;;;;;;36.63;21.48;;;15.90;99.90;;;;;;10392137;28;20473;-77
2022/10/29 15:23:48;;;;;;;34.30;19.88;;;15.80;99.90;;;;;;10386298;28;20388;-77
2022/10/29 15:28:51;;;;;;;45.78;24.17;;;15.70;99.90;;;;;;10390959;28;20033;-77
2022/10/29 15:33:53;;;;;;;59.85;30.45;;;15.60;99.90;;;;;;10390525;28;20104;-76
2022/10/29 15:39:18;;;;;;;39.47;21.77;;;15.40;99.90;;;;;;10380926;28;20511;-76
2022/10/29 15:44:34;;;;;;;48.00;25.08;;;15.30;99.90;;;;;;10385998;28;20038;-77
2022/10/29 15:49:35;;;;;;;;;;;15.10;99.90;;;;;;10395012;28;20044;-76
2022/10/29 15:54:35;;;;;;;43.03;22.40;;;15.00;99.90;;;;;;10392888;28;20364;-77
2022/10/29 15:59:38;;;;;;;247.70;103.35;;;14.90;99.90;;;;;;10404989;28;20401;-80
2022/10/29 16:04:38;;;;;;;139.70;62.88;;;14.70;99.90;;;;;;10377196;28;20477;-77
2022/10/29 16:09:45;;;;;;;123.63;49.75;;;14.60;99.90;;;;;;10384004;28;20069;-79
2022/10/29 16:14:46;;;;;;;164.82;63.22;;;14.50;99.90;;;;;;10393037;28;20050;-78
2022/10/29 16:19:47;;;;;;;114.25;49.67;;;14.40;99.90;;;;;;10396946;28;20025;-78
2022/10/29 16:24:47;;;;;;;69.38;37.53;;;14.30;99.90;;;;;;10395628;28;20037;-76
2022/10/29 16:29:51;;;;;;;71.20;38.22;;;14.20;99.90;;;;;;10387009;28;20033;-76
2022/10/29 16:34:51;;;;;;;75.80;40.75;;;14.10;99.90;;;;;;10381981;28;20036;-81
2022/10/29 16:39:52;;;;;;;84.03;43.58;;;14.00;99.90;;;;;;10402024;28;20021;-77
2022/10/29 16:44:53;;;;;;;67.65;37.13;;;13.90;99.90;;;;;;10390508;28;20044;-80
2022/10/29 16:49:54;;;;;;;89.80;45.40;;;13.90;99.90;;;;;;10390925;28;20496;-79
2022/10/29 16:54:54;;;;;;;57.65;36.55;;;13.90;99.90;;;;;;10384712;28;20030;-78
2022/10/29 16:59:55;;;;;;;67.38;40.25;;;13.80;99.90;;;;;;10387837;28;20079;-77
2022/10/29 17:04:55;;;;;;;60.17;36.50;;;13.80;99.90;;;;;;10414277;28;20041;-75
2022/10/29 17:09:56;;;;;;;80.82;45.10;;;13.70;99.90;;;;;;10409429;28;20049;-77
2022/10/29 17:14:57;;;;;;;69.20;37.47;;;13.70;99.90;;;;;;10414069;28;20030;-76
2022/10/29 17:19:57;;;;;;;77.65;43.58;;;13.70;99.90;;;;;;10405901;28;20052;-79
2022/10/29 17:24:58;;;;;;;102.80;63.80;;;13.60;99.90;;;;;;10406356;28;20436;-81
2022/10/29 17:29:58;;;;;;;212.23;102.18;;;13.50;99.90;;;;;;10410953;28;20087;-77
2022/10/29 17:34:59;;;;;;;345.85;148.60;;;13.50;99.90;;;;;;10392170;28;20029;-79
2022/10/29 17:40:00;;;;;;;343.10;144.93;;;13.40;99.90;;;;;;10389720;28;20454;-76
2022/10/29 17:45:00;;;;;;;155.65;79.28;;;13.40;99.90;;;;;;10405200;28;20041;-77
2022/10/29 17:50:01;;;;;;;113.97;52.70;;;13.30;99.90;;;;;;10395260;28;20017;-77
2022/10/29 17:55:01;;;;;;;64.35;34.15;;;13.20;99.90;;;;;;10401898;28;20040;-79
2022/10/29 18:00:03;;;;;;;72.57;39.85;;;13.20;99.90;;;;;;10399964;28;20036;-77
2022/10/29 18:05:03;;;;;;;54.08;29.10;;;13.10;99.90;;;;;;10392342;28;20077;-75
2022/10/29 18:10:04;;;;;;;61.38;35.58;;;13.10;99.90;;;;;;10386198;28;20124;-79
2022/10/29 18:15:05;;;;;;;47.03;29.33;;;13.00;99.90;;;;;;10386081;28;20509;-79
2022/10/29 18:20:06;;;;;;;67.72;38.88;;;13.00;99.90;;;;;;10382455;28;20036;-77
2022/10/29 18:25:09;;;;;;;92.32;53.45;;;13.00;99.90;;;;;;10379545;28;20040;-78
2022/10/29 18:30:10;;;;;;;68.68;40.05;;;13.00;99.90;;;;;;10399447;28;20029;-77
2022/10/29 18:35:10;;;;;;;70.38;39.88;;;12.90;99.90;;;;;;10382571;28;20044;-77
2022/10/29 18:40:11;;;;;;;68.40;40.70;;;12.80;99.90;;;;;;10388232;28;20466;-76
2022/10/29 18:45:12;;;;;;;73.75;44.15;;;12.80;99.90;;;;;;10386906;28;20049;-77
2022/10/29 18:50:13;;;;;;;91.03;53.40;;;12.70;99.90;;;;;;10384774;28;20661;-77
2022/10/29 18:55:13;;;;;;;81.13;49.97;;;12.80;99.90;;;;;;10382497;28;20033;-77
2022/10/29 19:00:14;;;;;;;94.35;55.67;;;12.70;99.90;;;;;;10390942;28;20029;-77
2022/10/29 19:05:15;;;;;;;84.85;49.03;;;12.70;99.90;;;;;;10397435;28;20496;-78
2022/10/29 19:10:16;;;;;;;102.13;54.85;;;12.70;99.90;;;;;;10383228;28;20072;-80
2022/10/29 19:15:16;;;;;;;108.97;57.90;;;12.70;99.90;;;;;;10387661;28;20042;-77
2022/10/29 19:20:18;;;;;;;152.68;79.25;;;12.70;99.90;;;;;;10386255;28;20469;-77
2022/10/29 19:25:18;;;;;;;85.78;49.63;;;12.60;99.90;;;;;;10396683;28;20129;-79
2022/10/29 19:30:19;;;;;;;190.48;97.22;;;12.70;99.90;;;;;;10380690;28;20030;-79
2022/10/29 19:35:19;;;;;;;81.95;44.60;;;12.70;99.90;;;;;;10385501;28;20037;-79
2022/10/29 19:40:20;;;;;;;71.63;42.83;;;12.70;99.90;;;;;;10379290;28;20038;-78
2022/10/29 19:45:21;;;;;;;76.10;44.35;;;12.70;99.90;;;;;;10380704;28;20116;-77
2022/10/29 19:50:21;;;;;;;144.63;79.43;;;12.80;99.90;;;;;;10382316;28;20060;-78
2022/10/29 19:55:22;;;;;;;100.47;54.05;;;12.80;99.90;;;;;;10374695;28;20034;-80
2022/10/29 20:00:22;;;;;;;163.63;98.35;;;12.80;99.90;;;;;;10383842;28;20492;-77
2022/10/29 20:05:23;;;;;;;99.00;57.83;;;12.80;99.90;;;;;;10378989;28;20498;-79
2022/10/29 20:10:24;;;;;;;84.28;48.85;;;12.80;99.90;;;;;;10377075;28;20049;-77
2022/10/29 20:15:25;;;;;;;84.32;50.55;;;12.80;99.90;;;;;;10380166;28;20045;-78
2022/10/29 20:20:25;;;;;;;72.68;41.80;;;12.80;99.90;;;;;;10385190;28;20033;-81
2022/10/29 20:25:26;;;;;;;64.40;36.30;;;12.80;99.90;;;;;;10389456;28;20048;-77
2022/10/29 20:30:27;;;;;;;65.78;37.85;;;12.80;99.90;;;;;;10384033;28;20033;-80
2022/10/29 20:35:34;;;;;;;64.07;36.83;;;12.80;99.90;;;;;;10388299;28;20037;-77
2022/10/29 20:40:34;;;;;;;57.35;34.03;;;12.80;99.90;;;;;;10384449;28;20037;-78
2022/10/29 20:45:35;;;;;;;57.13;32.45;;;12.80;99.90;;;;;;10389751;28;20045;-77
2022/10/29 20:50:35;;;;;;;51.75;31.33;;;12.80;99.90;;;;;;10383184;28;20025;-76
2022/10/29 20:55:36;;;;;;;48.17;29.45;;;12.80;99.90;;;;;;10381775;28;20089;-77
2022/10/29 21:00:37;;;;;;;59.33;34.03;;;12.80;99.90;;;;;;10383331;28;20104;-77
2022/10/29 21:05:37;;;;;;;65.72;38.88;;;12.80;99.90;;;;;;10380021;28;20529;-77
2022/10/29 21:10:38;;;;;;;75.18;41.50;;;12.80;99.90;;;;;;10384618;28;20052;-77
2022/10/29 21:15:38;;;;;;;77.07;42.60;;;12.80;99.90;;;;;;10381935;28;20033;-77
2022/10/29 21:20:40;;;;;;;85.45;49.95;;;12.70;99.90;;;;;;10376036;28;20775;-79
2022/10/29 21:25:41;;;;;;;87.63;51.38;;;12.80;99.90;;;;;;10398031;28;20049;-80
2022/10/29 21:30:42;;;;;;;78.78;44.70;;;12.80;99.90;;;;;;10375521;28;20113;-77
2022/10/29 21:35:57;;;;;;;70.97;38.08;;;12.70;99.90;;;;;;10375907;28;20425;-78
2022/10/29 21:41:00;;;;;;;56.10;33.65;;;12.70;99.90;;;;;;10396944;28;20025;-79
2022/10/29 21:46:01;;;;;;;51.50;32.15;;;12.70;99.90;;;;;;10382849;28;20033;-78
2022/10/29 21:51:19;;;;;;;50.60;30.98;;;12.80;99.90;;;;;;10398356;28;20392;-78
2022/10/29 21:56:20;;;;;;;51.47;32.20;;;12.70;99.90;;;;;;10392064;28;20036;-77
2022/10/29 22:01:21;;;;;;;53.13;32.60;;;12.80;99.90;;;;;;10396551;28;20025;-77
2022/10/29 22:06:24;;;;;;;79.22;48.42;;;12.70;99.90;;;;;;10393897;28;20107;-76
2022/10/29 22:11:26;;;;;;;61.53;39.08;;;12.70;99.90;;;;;;10383439;28;20076;-78
2022/10/29 22:16:27;;;;;;;59.47;41.20;;;12.70;99.90;;;;;;10385699;28;20044;-77
2022/10/29 22:21:27;;;;;;;62.75;38.88;;;12.70;99.90;;;;;;10389575;28;20052;-77
2022/10/29 22:26:29;;;;;;;51.75;31.58;;;12.60;99.90;;;;;;10380495;28;20064;-77
2022/10/29 22:31:30;;;;;;;53.33;33.60;;;12.60;99.90;;;;;;10375095;28;20040;-78
2022/10/29 22:36:30;;;;;;;53.03;32.55;;;12.50;99.90;;;;;;10382039;28;20389;-77
2022/10/29 22:47:28;;;;;;;53.20;29.85;;;12.40;99.90;;;;;;10390144;28;20116;-77
2022/10/29 22:52:28;;;;;;;53.20;30.80;;;12.30;99.90;;;;;;10384906;28;20477;-78
2022/10/29 22:57:29;;;;;;;51.25;30.42;;;12.20;99.90;;;;;;10384068;28;20478;-76
2022/10/29 23:02:29;;;;;;;58.60;31.00;;;12.20;99.90;;;;;;10400711;28;20048;-78
2022/10/29 23:07:30;;;;;;;48.13;28.60;;;12.10;99.90;;;;;;10379369;28;20452;-77
2022/10/29 23:12:30;;;;;;;55.70;29.52;;;12.00;99.90;;;;;;10384562;28;20084;-77
2022/10/29 23:17:31;;;;;;;66.72;29.77;;;11.90;99.90;;;;;;10372678;28;20484;-76
2022/10/29 23:22:31;;;;;;;47.20;28.80;;;11.70;99.90;;;;;;10383582;28;20095;-80
2022/10/29 23:27:32;;;;;;;68.20;38.08;;;11.50;99.90;;;;;;10380395;28;20072;-76
2022/10/29 23:32:32;;;;;;;75.75;41.15;;;11.60;99.90;;;;;;10381474;28;20095;-77
2022/10/29 23:37:33;;;;;;;69.28;42.60;;;11.60;99.90;;;;;;10377999;28;20037;-80
2022/10/29 23:42:34;;;;;;;88.57;48.63;;;11.60;99.90;;;;;;10384165;28;20037;-77
2022/10/29 23:47:34;;;;;;;64.10;35.15;;;11.50;99.90;;;;;;10394380;28;20041;-78
2022/10/29 23:52:35;;;;;;;55.60;28.83;;;11.40;99.90;;;;;;10377811;28;20071;-78
2022/10/29 23:57:35;;;;;;;57.17;31.92;;;11.20;99.90;;;;;;10386072;28;20388;-78
